createdAt,value
2018-01-14T00:02:47.802Z,12.37
2018-01-14T00:05:16.167Z,14.90
2018-01-14T00:07:43.653Z,14.40
2018-01-14T00:10:11.154Z,14.27
2018-01-14T00:12:38.673Z,12.67
2018-01-14T00:15:06.186Z,13.40
2018-01-14T00:17:33.708Z,13.50
2018-01-14T00:20:01.206Z,14.50
2018-01-14T00:22:28.687Z,13.93
2018-01-14T00:24:56.958Z,15.23
2018-01-14T00:27:24.495Z,12.47
2018-01-14T00:29:51.994Z,12.67
2018-01-14T00:32:19.501Z,13.33
2018-01-14T00:34:47.763Z,14.73
2018-01-14T00:37:15.287Z,13.27
2018-01-14T00:39:42.829Z,15.13
2018-01-14T00:42:11.088Z,13.80
2018-01-14T00:44:39.351Z,13.80
2018-01-14T00:47:06.861Z,13.73
2018-01-14T00:49:34.356Z,13.50
2018-01-14T00:52:01.853Z,13.47
2018-01-14T00:54:30.129Z,13.13
2018-01-14T00:56:58.406Z,13.07
2018-01-14T00:59:26.666Z,13.90
2018-01-14T01:01:54.152Z,12.50
2018-01-14T01:04:21.654Z,12.57
2018-01-14T01:06:49.200Z,13.30
2018-01-14T01:09:16.686Z,13.20
2018-01-14T01:11:44.231Z,15.00
2018-01-14T01:14:11.760Z,14.53
2018-01-14T01:16:39.255Z,14.37
2018-01-14T01:19:06.779Z,15.10
2018-01-14T01:21:34.276Z,13.50
2018-01-14T01:24:01.774Z,12.97
2018-01-14T01:26:29.503Z,14.47
2018-01-14T01:28:56.989Z,14.50
2018-01-14T01:31:25.250Z,14.07
2018-01-14T01:33:52.743Z,13.80
2018-01-14T01:36:20.250Z,14.27
2018-01-14T01:38:47.746Z,14.43
2018-01-14T01:41:16.008Z,13.87
2018-01-14T01:43:44.276Z,18.50
2018-01-14T01:46:11.792Z,15.10
2018-01-14T01:48:39.313Z,14.60
2018-01-14T01:51:07.586Z,15.30
2018-01-14T01:53:35.905Z,12.60
2018-01-14T01:56:03.395Z,15.83
2018-01-14T01:58:30.940Z,13.77
2018-01-14T02:00:58.436Z,16.20
2018-01-14T02:03:26.720Z,17.67
2018-01-14T02:05:54.971Z,14.70
2018-01-14T02:08:22.501Z,14.53
2018-01-14T02:10:50.007Z,15.30
2018-01-14T02:13:18.283Z,14.40
2018-01-14T02:15:46.527Z,14.50
2018-01-14T02:18:14.019Z,15.20
2018-01-14T02:20:42.305Z,15.47
2018-01-14T02:23:10.569Z,16.33
2018-01-14T02:25:38.804Z,13.80
2018-01-14T02:28:06.332Z,16.63
2018-01-14T02:30:33.822Z,18.23
2018-01-14T02:33:01.322Z,14.57
2018-01-14T02:35:29.586Z,17.27
2018-01-14T02:37:57.101Z,16.10
2018-01-14T02:40:24.636Z,15.13
2018-01-14T02:42:52.129Z,16.20
2018-01-14T02:45:19.630Z,15.67
2018-01-14T02:47:47.876Z,14.80
2018-01-14T02:50:15.362Z,16.60
2018-01-14T02:52:43.672Z,15.47
2018-01-14T02:55:11.164Z,17.90
2018-01-14T02:57:38.646Z,15.20
2018-01-14T03:00:06.937Z,15.13
2018-01-14T03:02:35.203Z,12.90
2018-01-14T03:05:03.477Z,15.60
2018-01-14T03:07:32.392Z,15.10
2018-01-14T03:10:00.653Z,15.87
2018-01-14T03:12:28.925Z,14.70
2018-01-14T03:14:57.176Z,14.80
2018-01-14T03:17:24.661Z,13.40
2018-01-14T03:19:52.926Z,13.63
2018-01-14T03:22:20.428Z,14.73
2018-01-14T03:24:47.928Z,13.80
2018-01-14T03:27:15.416Z,14.23
2018-01-14T03:29:43.690Z,14.77
2018-01-14T03:32:11.931Z,14.03
2018-01-14T03:34:39.441Z,14.50
2018-01-14T03:37:06.934Z,15.00
2018-01-14T03:39:34.421Z,15.23
2018-01-14T03:42:02.690Z,13.00
2018-01-14T03:44:30.190Z,14.37
2018-01-14T03:46:57.704Z,12.07
2018-01-14T03:49:25.221Z,12.43
2018-01-14T03:51:52.722Z,15.67
2018-01-14T03:54:20.218Z,15.30
2018-01-14T03:56:47.722Z,16.00
2018-01-14T03:59:15.225Z,12.60
2018-01-14T04:01:48.520Z,12.93
2018-01-14T04:04:16.776Z,14.67
2018-01-14T04:06:44.282Z,13.73
2018-01-14T04:09:12.011Z,15.00
2018-01-14T04:11:39.514Z,13.20
2018-01-14T04:14:07.238Z,13.10
2018-01-14T04:16:35.494Z,13.43
2018-01-14T04:19:02.978Z,13.83
2018-01-14T04:21:31.275Z,13.97
2018-01-14T04:23:58.782Z,13.33
2018-01-14T04:26:26.273Z,14.80
2018-01-14T04:28:54.522Z,15.03
2018-01-14T04:31:22.027Z,15.17
2018-01-14T04:33:49.520Z,15.77
2018-01-14T04:36:17.019Z,17.40
2018-01-14T04:38:45.262Z,16.70
2018-01-14T04:43:47.377Z,16.07
2018-01-14T04:46:15.645Z,17.17
2018-01-14T04:48:43.123Z,15.00
2018-01-14T04:51:10.622Z,16.37
2018-01-14T04:53:38.120Z,16.07
2018-01-14T04:56:06.390Z,15.93
2018-01-14T04:58:33.882Z,16.13
2018-01-14T05:01:01.385Z,16.83
2018-01-14T05:03:28.894Z,14.17
2018-01-14T05:05:56.433Z,14.70
2018-01-14T05:08:24.684Z,15.57
2018-01-14T05:10:52.186Z,14.20
2018-01-14T05:13:20.438Z,14.67
2018-01-14T05:15:47.930Z,14.87
2018-01-14T05:18:15.420Z,14.70
2018-01-14T05:20:42.934Z,14.30
2018-01-14T05:23:10.434Z,14.73
2018-01-14T05:25:37.929Z,12.87
2018-01-14T05:28:05.413Z,13.73
2018-01-14T05:30:33.170Z,13.50
2018-01-14T05:33:00.672Z,15.10
2018-01-14T05:35:28.155Z,13.87
2018-01-14T05:37:55.652Z,13.23
2018-01-14T05:40:23.132Z,14.60
2018-01-14T05:42:50.646Z,15.97
2018-01-14T05:45:18.906Z,15.97
2018-01-14T05:47:46.395Z,12.10
2018-01-14T05:50:14.652Z,14.90
2018-01-14T05:52:42.908Z,16.00
2018-01-14T05:55:10.398Z,13.33
2018-01-14T05:57:38.667Z,14.97
2018-01-14T06:00:06.174Z,14.27
2018-01-14T06:02:33.715Z,13.33
2018-01-14T06:05:01.148Z,14.13
2018-01-14T06:07:29.413Z,13.97
2018-01-14T06:09:56.894Z,13.10
2018-01-14T06:12:24.417Z,15.57
2018-01-14T06:14:51.910Z,14.40
2018-01-14T06:17:19.410Z,15.13
2018-01-14T06:19:46.885Z,14.07
2018-01-14T06:22:14.382Z,14.20
2018-01-14T06:24:42.623Z,14.53
2018-01-14T06:27:10.137Z,14.20
2018-01-14T06:29:37.733Z,13.23
2018-01-14T06:32:05.227Z,16.30
2018-01-14T06:34:33.498Z,13.60
2018-01-14T06:37:01.792Z,14.20
2018-01-14T06:39:29.282Z,14.53
2018-01-14T06:41:56.770Z,13.47
2018-01-14T06:44:24.261Z,14.73
2018-01-14T06:46:52.522Z,14.00
2018-01-14T06:49:20.770Z,15.00
2018-01-14T06:51:48.469Z,13.70
2018-01-14T06:54:16.742Z,15.77
2018-01-14T06:56:44.998Z,16.57
2018-01-14T07:01:46.321Z,15.80
2018-01-14T07:04:13.806Z,18.20
2018-01-14T07:06:41.288Z,14.27
2018-01-14T07:09:09.562Z,15.40
2018-01-14T07:11:37.052Z,16.27
2018-01-14T07:14:04.558Z,16.50
2018-01-14T07:16:32.055Z,15.43
2018-01-14T07:19:00.316Z,14.20
2018-01-14T07:21:28.614Z,14.27
2018-01-14T07:23:56.105Z,13.87
2018-01-14T07:26:23.606Z,16.80
2018-01-14T07:28:51.098Z,15.53
2018-01-14T07:31:18.595Z,16.90
2018-01-14T07:33:46.076Z,16.87
2018-01-14T07:36:13.549Z,18.23
2018-01-14T07:38:41.809Z,18.30
2018-01-14T07:41:09.322Z,16.53
2018-01-14T07:43:36.841Z,19.03
2018-01-14T07:46:04.304Z,17.83
2018-01-14T07:48:32.561Z,17.33
2018-01-14T07:51:00.031Z,17.30
2018-01-14T07:53:28.296Z,19.60
2018-01-14T07:55:55.765Z,17.87
2018-01-14T07:58:24.029Z,21.40
2018-01-14T08:00:51.510Z,18.30
2018-01-14T08:03:19.762Z,18.70
2018-01-14T08:05:47.247Z,18.90
2018-01-14T08:08:15.502Z,19.47
2018-01-14T08:13:16.878Z,19.63
2018-01-14T08:15:45.114Z,19.40
2018-01-14T08:18:12.749Z,17.67
2018-01-14T08:20:40.237Z,19.50
2018-01-14T08:23:07.731Z,19.40
2018-01-14T08:25:35.288Z,20.27
2018-01-14T08:28:03.539Z,15.53
2018-01-14T08:30:31.053Z,17.83
2018-01-14T08:32:58.887Z,17.40
2018-01-14T08:35:38.014Z,18.50
2018-01-14T08:38:05.599Z,18.70
2018-01-14T08:40:33.141Z,19.87
2018-01-14T08:43:01.446Z,24.33
2018-01-14T08:45:28.980Z,24.20
2018-01-14T08:47:57.382Z,27.70
2018-01-14T08:50:24.934Z,26.50
2018-01-14T08:52:52.497Z,25.70
2018-01-14T08:55:20.089Z,24.30
2018-01-14T08:57:47.622Z,22.40
2018-01-14T09:00:15.153Z,21.63
2018-01-14T09:02:43.449Z,22.73
2018-01-14T09:07:44.993Z,20.20
2018-01-14T09:10:12.464Z,20.87
2018-01-14T09:12:40.690Z,18.70
2018-01-14T09:15:08.509Z,17.70
2018-01-14T09:17:36.806Z,21.00
2018-01-14T09:20:04.338Z,14.63
2018-01-14T09:22:32.597Z,22.80
2018-01-14T09:25:00.126Z,20.53
2018-01-14T09:27:27.650Z,24.80
2018-01-14T09:29:55.169Z,22.37
2018-01-14T09:32:22.683Z,26.00
2018-01-14T09:34:50.344Z,23.50
2018-01-14T09:37:17.901Z,23.93
2018-01-14T09:39:45.403Z,24.73
2018-01-14T09:42:12.919Z,26.60
2018-01-14T09:44:40.482Z,25.67
2018-01-14T09:47:08.012Z,24.00
2018-01-14T09:49:36.303Z,26.87
2018-01-14T09:52:03.822Z,24.73
2018-01-14T09:54:31.313Z,24.57
2018-01-14T09:56:59.593Z,22.50
2018-01-14T09:59:27.869Z,20.30
2018-01-14T10:01:55.376Z,21.20
2018-01-14T10:04:22.881Z,21.47
2018-01-14T10:06:50.408Z,23.17
2018-01-14T10:09:17.960Z,20.57
2018-01-14T10:11:45.498Z,20.50
2018-01-14T10:14:13.022Z,19.90
2018-01-14T10:16:41.336Z,23.90
2018-01-14T10:19:08.852Z,21.80
2018-01-14T10:21:37.125Z,22.90
2018-01-14T10:24:04.654Z,21.17
2018-01-14T10:26:32.170Z,21.90
2018-01-14T10:28:59.726Z,20.63
2018-01-14T10:31:27.233Z,20.57
2018-01-14T10:33:54.881Z,22.43
2018-01-14T10:36:22.865Z,22.23
2018-01-14T10:38:50.414Z,22.23
2018-01-14T10:41:17.938Z,19.87
2018-01-14T10:43:45.453Z,19.13
2018-01-14T10:46:13.282Z,20.97
2018-01-14T10:48:40.823Z,19.40
2018-01-14T10:51:08.403Z,20.17
2018-01-14T10:53:36.096Z,17.90
2018-01-14T10:56:03.654Z,18.80
2018-01-14T10:58:31.225Z,19.93
2018-01-14T11:00:58.789Z,19.73
2018-01-14T11:03:27.117Z,20.00
2018-01-14T11:05:54.664Z,19.03
2018-01-14T11:08:22.229Z,19.63
2018-01-14T11:10:49.806Z,19.00
2018-01-14T11:15:51.294Z,19.37
2018-01-14T11:18:18.846Z,20.50
2018-01-14T11:20:46.375Z,19.03
2018-01-14T11:23:13.918Z,17.17
2018-01-14T11:25:41.461Z,18.67
2018-01-14T11:28:09.797Z,19.80
2018-01-14T11:30:37.349Z,18.50
2018-01-14T11:33:04.908Z,16.67
2018-01-14T11:35:32.476Z,18.70
2018-01-14T11:38:00.050Z,18.70
2018-01-14T11:40:27.602Z,18.70
2018-01-14T11:42:55.169Z,16.23
2018-01-14T11:45:22.724Z,16.87
2018-01-14T11:47:50.253Z,19.40
2018-01-14T11:50:17.807Z,18.00
2018-01-14T11:52:45.348Z,18.37
2018-01-14T11:55:12.966Z,18.63
2018-01-14T11:57:40.536Z,20.27
2018-01-14T12:00:08.080Z,18.47
2018-01-14T12:02:35.673Z,18.87
2018-01-14T12:05:04.004Z,18.33
2018-01-14T12:07:31.527Z,19.37
2018-01-14T12:09:59.090Z,20.60
2018-01-14T12:12:26.701Z,18.50
2018-01-14T12:14:54.250Z,20.50
2018-01-14T12:17:21.806Z,18.60
2018-01-14T12:19:49.348Z,20.47
2018-01-14T12:22:16.920Z,19.50
2018-01-14T12:24:44.460Z,20.43
2018-01-14T12:27:11.977Z,21.80
2018-01-14T12:29:40.294Z,19.53
2018-01-14T12:32:07.826Z,23.17
2018-01-14T12:34:38.617Z,22.83
2018-01-14T12:37:06.176Z,21.77
2018-01-14T12:39:33.740Z,25.90
2018-01-14T12:42:01.261Z,25.83
2018-01-14T12:44:28.893Z,25.00
2018-01-14T12:46:57.188Z,26.97
2018-01-14T12:49:24.757Z,28.13
2018-01-14T12:51:52.293Z,24.80
2018-01-14T12:54:20.580Z,28.10
2018-01-14T12:56:48.096Z,27.33
2018-01-14T12:59:15.753Z,27.07
2018-01-14T13:01:43.290Z,26.17
2018-01-14T13:04:10.825Z,24.97
2018-01-14T13:06:38.356Z,27.27
2018-01-14T13:09:05.880Z,26.40
2018-01-14T13:11:33.449Z,26.20
2018-01-14T13:14:01.007Z,28.73
2018-01-14T13:16:28.512Z,28.67
2018-01-14T13:18:56.053Z,27.03
2018-01-14T13:21:24.363Z,27.50
2018-01-14T13:23:51.934Z,28.63
2018-01-14T13:26:19.445Z,27.70
2018-01-14T13:28:47.042Z,27.33
2018-01-14T13:31:14.633Z,26.27
2018-01-14T13:33:42.199Z,29.23
2018-01-14T13:36:09.738Z,26.77
2018-01-14T13:38:37.286Z,29.00
2018-01-14T13:41:04.820Z,28.33
2018-01-14T13:43:32.407Z,29.03
2018-01-14T13:45:59.964Z,28.37
2018-01-14T13:48:27.490Z,27.90
2018-01-14T13:50:55.792Z,29.47
2018-01-14T13:53:23.357Z,24.50
2018-01-14T13:55:50.886Z,28.70
2018-01-14T13:58:19.178Z,27.70
2018-01-14T14:00:46.745Z,33.13
2018-01-14T14:03:14.314Z,41.90
2018-01-14T14:05:41.919Z,37.80
2018-01-14T14:08:09.513Z,30.43
2018-01-14T14:10:37.812Z,27.50
2018-01-14T14:13:05.317Z,28.37
2018-01-14T14:15:32.869Z,29.37
2018-01-14T14:18:01.238Z,28.17
2018-01-14T14:20:28.808Z,26.67
2018-01-14T14:22:56.364Z,35.10
2018-01-14T14:25:23.974Z,30.60
2018-01-14T14:27:51.497Z,29.70
2018-01-14T14:30:19.046Z,30.57
2018-01-14T14:32:46.600Z,30.00
2018-01-14T14:35:14.366Z,28.40
2018-01-14T14:37:41.902Z,28.10
2018-01-14T14:40:09.529Z,27.87
2018-01-14T14:42:37.841Z,27.17
2018-01-14T14:45:05.374Z,30.00
2018-01-14T14:47:33.694Z,30.67
2018-01-14T14:50:01.283Z,31.03
2018-01-14T14:52:28.836Z,28.73
2018-01-14T14:54:56.344Z,26.53
2018-01-14T14:57:23.921Z,30.33
2018-01-14T14:59:51.448Z,31.40
2018-01-14T15:02:19.047Z,29.97
2018-01-14T15:04:46.627Z,31.07
2018-01-14T15:07:14.258Z,29.67
2018-01-14T15:09:41.963Z,27.13
2018-01-14T15:12:09.662Z,29.63
2018-01-14T15:14:37.221Z,28.57
2018-01-14T15:17:04.960Z,27.63
2018-01-14T15:19:33.305Z,30.47
2018-01-14T15:22:01.031Z,31.60
2018-01-14T15:24:30.007Z,28.30
2018-01-14T15:26:57.634Z,28.47
2018-01-14T15:29:25.211Z,27.40
2018-01-14T15:31:52.750Z,26.90
2018-01-14T15:34:21.109Z,27.83
2018-01-14T15:36:49.754Z,30.83
2018-01-14T15:39:17.601Z,28.80
2018-01-14T15:41:45.520Z,26.23
2018-01-14T15:44:13.116Z,26.60
2018-01-14T15:46:40.796Z,25.20
2018-01-14T15:49:08.487Z,28.23
2018-01-14T15:51:36.197Z,27.57
2018-01-14T15:54:03.731Z,28.60
2018-01-14T15:56:31.261Z,39.77
2018-01-14T15:58:59.498Z,35.50
2018-01-14T16:01:26.984Z,39.20
2018-01-14T16:03:55.254Z,37.93
2018-01-14T16:06:22.756Z,42.50
2018-01-14T16:08:50.242Z,41.77
2018-01-14T16:11:17.747Z,40.27
2018-01-14T16:13:46.224Z,42.60
2018-01-14T16:16:14.812Z,46.80
2018-01-14T16:18:42.336Z,43.67
2018-01-14T16:21:09.862Z,45.00
2018-01-14T16:23:37.594Z,36.50
2018-01-14T16:26:05.882Z,35.30
2018-01-14T16:28:34.207Z,34.83
2018-01-14T16:31:01.704Z,35.10
2018-01-14T16:33:30.199Z,31.47
2018-01-14T16:35:58.483Z,28.13
2018-01-14T16:38:26.876Z,32.93
2018-01-14T16:40:54.484Z,29.00
2018-01-14T16:43:22.731Z,35.57
2018-01-14T16:45:50.426Z,32.10
2018-01-14T16:48:18.100Z,30.80
2018-01-14T16:50:45.651Z,32.30
2018-01-14T16:53:13.180Z,34.47
2018-01-14T16:55:41.031Z,30.47
2018-01-14T16:58:08.628Z,33.40
2018-01-14T17:00:36.219Z,29.63
2018-01-14T17:03:04.567Z,32.63
2018-01-14T17:05:32.318Z,32.80
2018-01-14T17:07:59.792Z,33.27
2018-01-14T17:10:27.332Z,30.67
2018-01-14T17:12:55.224Z,32.30
2018-01-14T17:15:23.042Z,32.30
2018-01-14T17:17:50.602Z,33.30
2018-01-14T17:20:18.251Z,30.10
2018-01-14T17:22:45.894Z,32.20
2018-01-14T17:25:13.673Z,33.47
2018-01-14T17:27:41.466Z,32.70
2018-01-14T17:30:09.297Z,31.97
2018-01-14T17:32:36.839Z,30.20
2018-01-14T17:35:04.407Z,34.90
2018-01-14T17:37:31.940Z,37.23
2018-01-14T17:39:59.458Z,34.73
2018-01-14T17:42:27.724Z,31.30
2018-01-14T17:44:55.274Z,30.40
2018-01-14T17:47:23.615Z,30.00
2018-01-14T17:49:51.432Z,32.40
2018-01-14T17:52:19.960Z,29.40
2018-01-14T17:54:47.541Z,32.40
2018-01-14T17:57:16.092Z,29.30
2018-01-14T17:59:43.618Z,32.53
2018-01-14T18:02:11.877Z,30.23
2018-01-14T18:04:39.424Z,30.43
2018-01-14T18:07:07.011Z,30.60
2018-01-14T18:09:34.624Z,29.53
2018-01-14T18:12:03.609Z,29.33
2018-01-14T18:14:31.280Z,35.20
2018-01-14T18:17:01.725Z,29.30
2018-01-14T18:19:29.282Z,29.57
2018-01-14T18:21:56.815Z,31.83
2018-01-14T18:24:24.572Z,26.70
2018-01-14T18:26:52.287Z,30.40
2018-01-14T18:29:19.859Z,30.93
2018-01-14T18:31:48.115Z,27.30
2018-01-14T18:34:16.020Z,31.43
2018-01-14T18:36:44.319Z,29.20
2018-01-14T18:39:12.124Z,30.40
2018-01-14T18:41:40.922Z,25.20
2018-01-14T18:44:08.522Z,28.47
2018-01-14T18:46:36.819Z,31.90
2018-01-14T18:51:36.883Z,29.57
2018-01-14T18:54:04.397Z,30.30
2018-01-14T18:56:33.986Z,29.07
2018-01-14T18:59:02.367Z,27.13
2018-01-14T19:01:30.756Z,27.87
2018-01-14T19:03:59.437Z,29.93
2018-01-14T19:06:27.035Z,30.70
2018-01-14T19:08:54.644Z,31.67
2018-01-14T19:11:22.222Z,29.37
2018-01-14T19:13:49.763Z,27.03
2018-01-14T19:16:17.358Z,26.00
2018-01-14T19:18:44.943Z,28.70
2018-01-14T19:21:12.524Z,26.30
2018-01-14T19:23:40.074Z,25.57
2018-01-14T19:26:07.637Z,28.30
2018-01-14T19:31:09.282Z,27.77
2018-01-14T19:33:39.893Z,28.30
2018-01-14T19:36:08.265Z,26.80
2018-01-14T19:38:35.815Z,26.63
2018-01-14T19:41:03.399Z,25.20
2018-01-14T19:43:31.741Z,25.20
2018-01-14T19:45:59.340Z,28.60
2018-01-14T19:48:27.673Z,29.20
2018-01-14T19:50:55.252Z,28.60
2018-01-14T19:53:22.930Z,30.80
2018-01-14T19:55:50.497Z,27.40
2018-01-14T19:58:18.877Z,30.23
2018-01-14T20:00:47.209Z,28.67
2018-01-14T20:03:14.841Z,29.07
2018-01-14T20:05:42.421Z,31.10
2018-01-14T20:08:10.032Z,26.80
2018-01-14T20:10:37.617Z,27.03
2018-01-14T20:13:05.234Z,29.20
2018-01-14T20:15:32.824Z,27.87
2018-01-14T20:18:01.157Z,28.20
2018-01-14T20:20:28.759Z,28.97
2018-01-14T20:22:57.097Z,26.47
2018-01-14T20:25:24.673Z,27.87
2018-01-14T20:27:52.280Z,26.63
2018-01-14T20:30:19.875Z,28.90
2018-01-14T20:32:47.524Z,27.03
2018-01-14T20:35:15.170Z,27.13
2018-01-14T20:37:42.786Z,26.07
2018-01-14T20:40:10.380Z,25.03
2018-01-14T20:42:38.768Z,27.20
2018-01-14T20:45:07.490Z,26.17
2018-01-14T20:47:35.076Z,26.23
2018-01-14T20:50:06.508Z,27.23
2018-01-14T20:52:34.197Z,22.60
2018-01-14T20:55:04.538Z,25.73
2018-01-14T20:57:32.924Z,25.17
2018-01-14T21:00:01.339Z,25.30
2018-01-14T21:02:31.840Z,26.80
2018-01-14T21:04:59.472Z,24.60
2018-01-14T21:07:28.117Z,26.53
2018-01-14T21:09:55.710Z,27.83
2018-01-14T21:12:23.418Z,25.87
2018-01-14T21:14:51.069Z,26.67
2018-01-14T21:17:18.640Z,26.90
2018-01-14T21:19:46.314Z,24.47
2018-01-14T21:22:14.647Z,24.77
2018-01-14T21:24:43.089Z,25.30
2018-01-14T21:27:10.694Z,25.80
2018-01-14T21:29:39.067Z,27.80
2018-01-14T21:32:07.422Z,28.43
2018-01-14T21:34:35.040Z,25.00
2018-01-14T21:37:02.671Z,27.67
2018-01-14T21:39:31.031Z,26.77
2018-01-14T21:41:58.577Z,23.60
2018-01-14T21:44:26.176Z,25.07
2018-01-14T21:46:53.777Z,27.37
2018-01-14T21:49:21.382Z,26.77
2018-01-14T21:51:48.955Z,24.60
2018-01-14T21:54:17.339Z,24.87
2018-01-14T21:56:45.637Z,24.70
2018-01-14T21:59:13.237Z,28.17
2018-01-14T22:01:40.829Z,26.50
2018-01-14T22:04:08.395Z,25.87
2018-01-14T22:06:36.719Z,26.73
2018-01-14T22:09:04.307Z,28.17
2018-01-14T22:11:31.914Z,24.30
2018-01-14T22:13:59.499Z,24.97
2018-01-14T22:16:27.097Z,27.97
2018-01-14T22:21:28.583Z,23.97
2018-01-14T22:23:56.952Z,22.27
2018-01-14T22:26:25.242Z,24.37
2018-01-14T22:28:53.605Z,27.23
2018-01-14T22:31:21.963Z,22.70
2018-01-14T22:33:49.586Z,27.37
2018-01-14T22:36:17.182Z,25.73
2018-01-14T22:38:44.784Z,27.43
2018-01-14T22:41:13.156Z,26.43
2018-01-14T22:43:41.488Z,26.93
2018-01-14T22:46:09.038Z,23.90
2018-01-14T22:48:36.608Z,27.40
2018-01-14T22:51:04.185Z,26.00
2018-01-14T22:53:31.726Z,21.93
2018-01-14T22:55:59.323Z,25.00
2018-01-14T22:58:27.647Z,24.73
2018-01-14T23:00:55.290Z,24.40
2018-01-14T23:03:22.870Z,25.70
2018-01-14T23:05:50.497Z,22.93
2018-01-14T23:08:18.092Z,27.10
2018-01-14T23:10:45.798Z,26.10
2018-01-14T23:15:47.194Z,25.70
2018-01-14T23:18:14.745Z,25.60
2018-01-14T23:20:43.090Z,27.10
2018-01-14T23:23:10.632Z,25.70
2018-01-14T23:25:38.196Z,26.60
2018-01-14T23:30:40.474Z,24.70
2018-01-14T23:33:08.023Z,25.90
2018-01-14T23:35:35.586Z,23.80
2018-01-14T23:38:03.121Z,22.30
2018-01-14T23:40:30.669Z,25.80
2018-01-14T23:42:58.984Z,23.97
2018-01-14T23:45:26.534Z,22.60
2018-01-14T23:47:54.090Z,25.10
2018-01-14T23:50:21.645Z,24.10
2018-01-14T23:52:49.193Z,23.10
2018-01-14T23:55:17.480Z,23.73
2018-01-14T23:57:45.030Z,23.70
